Time;durP1;ratioP1;P1;durP2;ratioP2;P2;SDS_P1;SDS_P2;PMS_P1;PMS_P2;Temp;Humidity;BMP_temperature;BMP_pressure;BME280_temperature;BME280_humidity;BME280_pressure;Samples;Min_cycle;Max_cycle;Signal;HPM_P1;HPM_P2
2022/05/07 00:02:04;;;;;;;17.20;15.03;;;12.10;97.60;;;;;;5050720;28;20234;-77
2022/05/07 00:04:30;;;;;;;16.83;14.60;;;12.10;97.60;;;;;;5051010;28;20180;-77
2022/05/07 00:06:56;;;;;;;18.30;14.07;;;12.20;97.60;;;;;;5067182;28;20182;-78
2022/05/07 00:09:23;;;;;;;16.53;13.40;;;12.20;97.60;;;;;;5017768;28;20298;-68
2022/05/07 00:11:49;;;;;;;15.33;13.80;;;12.10;97.60;;;;;;5001081;28;20226;-68
2022/05/07 00:14:15;;;;;;;15.27;13.77;;;12.10;97.60;;;;;;5029882;28;20195;-68
2022/05/07 00:19:25;;;;;;;15.57;13.93;;;12.00;97.60;;;;;;5035288;28;20217;-68
2022/05/07 00:21:51;;;;;;;14.73;12.10;;;12.00;97.60;;;;;;5050531;28;20206;-68
2022/05/07 00:24:17;;;;;;;13.07;11.70;;;12.00;97.60;;;;;;5033479;28;20190;-68
2022/05/07 00:26:44;;;;;;;15.03;12.40;;;12.00;97.60;;;;;;5050337;28;20187;-73
2022/05/07 00:29:09;;;;;;;13.77;12.00;;;12.00;97.60;;;;;;5025045;28;20210;-73
2022/05/07 00:31:35;;;;;;;17.77;15.10;;;12.00;97.60;;;;;;5063845;28;20195;-72
2022/05/07 00:34:01;;;;;;;16.90;15.07;;;12.10;97.60;;;;;;5013373;28;20287;-74
2022/05/07 00:36:27;;;;;;;14.93;13.40;;;12.00;97.60;;;;;;5046654;28;20555;-72
2022/05/07 00:38:52;;;;;;;13.50;12.10;;;12.10;97.60;;;;;;5013279;28;20262;-71
2022/05/07 00:41:18;;;;;;;14.10;12.03;;;12.00;97.60;;;;;;5046480;28;20192;-73
2022/05/07 00:43:44;;;;;;;16.30;14.53;;;12.10;97.60;;;;;;5013760;28;20187;-74
2022/05/07 00:46:12;;;;;;;16.50;13.63;;;12.00;97.60;;;;;;5013667;28;20653;-73
2022/05/07 00:48:38;;;;;;;14.80;12.77;;;12.00;97.60;;;;;;5013923;28;20176;-75
2022/05/07 00:53:49;;;;;;;13.90;12.40;;;12.10;97.70;;;;;;5015059;28;20167;-78
2022/05/07 00:56:15;;;;;;;17.10;13.77;;;12.10;97.70;;;;;;5015458;28;20194;-75
2022/05/07 00:58:41;;;;;;;15.77;13.73;;;12.10;97.70;;;;;;4992110;28;20210;-75
2022/05/07 01:01:07;;;;;;;14.87;13.37;;;12.10;97.70;;;;;;5020007;28;20184;-74
2022/05/07 01:03:32;;;;;;;15.03;12.07;;;12.10;97.70;;;;;;5026588;28;20183;-74
2022/05/07 01:05:59;;;;;;;13.93;12.50;;;12.00;97.70;;;;;;5000588;28;20186;-73
2022/05/07 01:08:25;;;;;;;13.73;12.03;;;12.00;97.70;;;;;;5032649;28;20163;-73
2022/05/07 01:10:52;;;;;;;13.50;12.07;;;12.00;97.70;;;;;;5017296;28;20229;-73
2022/05/07 01:13:18;;;;;;;14.00;12.50;;;12.10;97.70;;;;;;5016672;28;20187;-74
2022/05/07 01:15:48;;;;;;;13.17;11.77;;;12.00;97.70;;;;;;5016793;28;20251;-76
2022/05/07 01:18:15;;;;;;;14.63;13.13;;;12.10;97.80;;;;;;5033462;28;20212;-78
2022/05/07 01:20:41;;;;;;;15.40;13.40;;;12.20;97.80;;;;;;5016803;28;20179;-76
2022/05/07 01:23:08;;;;;;;14.57;12.57;;;12.00;97.70;;;;;;5015580;28;20171;-73
2022/05/07 01:25:34;;;;;;;18.53;15.97;;;12.10;97.80;;;;;;5013000;28;20199;-72
2022/05/07 01:27:59;;;;;;;17.07;11.70;;;12.00;97.80;;;;;;5013533;28;20200;-73
2022/05/07 01:30:25;;;;;;;19.57;15.30;;;12.00;97.80;;;;;;5033610;28;20199;-73
2022/05/07 01:32:52;;;;;;;17.73;14.63;;;12.00;97.80;;;;;;5061790;28;20191;-73
2022/05/07 01:35:17;;;;;;;16.80;14.03;;;12.00;97.80;;;;;;4999775;28;20195;-73
2022/05/07 01:37:43;;;;;;;16.10;13.30;;;12.00;97.80;;;;;;5017623;28;20207;-71
2022/05/07 01:40:11;;;;;;;15.13;13.20;;;11.90;97.80;;;;;;5012003;28;20233;-71
2022/05/07 01:42:37;;;;;;;16.07;13.97;;;11.90;97.80;;;;;;5005206;28;20180;-71
2022/05/07 01:45:03;;;;;;;16.00;14.23;;;12.00;97.80;;;;;;5016322;28;20188;-70
2022/05/07 01:50:13;;;;;;;18.10;14.67;;;12.00;97.80;;;;;;5053229;28;20189;-70
2022/05/07 01:52:39;;;;;;;14.73;13.03;;;11.90;97.80;;;;;;5020811;28;20191;-69
2022/05/07 01:55:05;;;;;;;14.93;13.13;;;11.90;97.80;;;;;;5033014;28;20187;-69
2022/05/07 01:57:30;;;;;;;19.90;14.83;;;11.90;97.80;;;;;;5033057;28;20206;-69
2022/05/07 01:59:56;;;;;;;19.87;15.03;;;11.90;97.80;;;;;;5028998;28;20188;-69
2022/05/07 02:02:22;;;;;;;16.73;15.00;;;12.00;97.80;;;;;;5018507;28;20224;-69
2022/05/07 02:04:47;;;;;;;19.13;13.97;;;11.90;97.80;;;;;;5049744;28;20176;-68
2022/05/07 02:07:13;;;;;;;18.00;14.20;;;11.90;97.80;;;;;;5049795;28;20179;-68
2022/05/07 02:09:39;;;;;;;13.43;12.00;;;11.90;97.80;;;;;;5049023;28;20202;-68
2022/05/07 02:12:05;;;;;;;18.20;13.53;;;11.90;97.80;;;;;;5028019;28;20189;-68
2022/05/07 02:14:32;;;;;;;17.57;13.13;;;11.90;97.80;;;;;;5036071;28;20174;-68
2022/05/07 02:16:58;;;;;;;16.93;14.37;;;11.80;97.80;;;;;;5020896;28;20195;-68
2022/05/07 02:19:24;;;;;;;12.93;11.53;;;11.90;97.80;;;;;;5046673;28;20233;-69
2022/05/07 02:21:49;;;;;;;16.57;14.13;;;11.80;97.80;;;;;;5033476;28;20194;-69
2022/05/07 02:24:15;;;;;;;16.43;14.70;;;11.90;97.80;;;;;;5000231;28;20210;-69
2022/05/07 02:26:42;;;;;;;14.60;13.10;;;11.90;97.80;;;;;;5016462;28;20188;-70
2022/05/07 02:29:09;;;;;;;14.70;13.10;;;11.80;97.80;;;;;;5034180;28;20242;-70
2022/05/07 02:31:35;;;;;;;14.40;12.97;;;11.80;97.80;;;;;;5010104;28;20217;-70
2022/05/07 02:34:01;;;;;;;15.57;12.47;;;11.80;97.80;;;;;;5016007;28;20238;-69
2022/05/07 02:36:27;;;;;;;19.57;15.43;;;11.80;97.80;;;;;;5032732;28;20258;-69
2022/05/07 02:38:52;;;;;;;14.50;12.90;;;11.90;97.80;;;;;;5016069;28;20240;-69
2022/05/07 02:44:04;;;;;;;14.87;13.33;;;11.80;97.90;;;;;;5016493;28;20175;-69
2022/05/07 02:46:30;;;;;;;15.90;13.50;;;11.80;97.80;;;;;;5039489;28;20191;-69
2022/05/07 02:48:55;;;;;;;23.23;15.87;;;11.90;97.90;;;;;;5017411;28;20191;-69
2022/05/07 02:51:21;;;;;;;16.70;15.00;;;11.90;97.80;;;;;;5019315;28;20218;-67
2022/05/07 02:53:47;;;;;;;15.80;13.67;;;11.90;97.90;;;;;;5019493;28;20734;-68
2022/05/07 02:56:12;;;;;;;16.97;14.17;;;11.90;97.80;;;;;;5001002;28;20190;-69
2022/05/07 02:58:38;;;;;;;14.57;12.93;;;11.90;97.80;;;;;;5045364;28;20226;-69
2022/05/07 03:01:04;;;;;;;16.60;14.70;;;11.80;97.80;;;;;;5032213;28;20221;-70
2022/05/07 03:03:30;;;;;;;15.47;13.80;;;11.90;97.80;;;;;;5031161;28;20195;-73
2022/05/07 03:05:58;;;;;;;13.33;11.93;;;11.80;97.90;;;;;;5005023;28;20277;-71
2022/05/07 03:08:23;;;;;;;15.77;13.27;;;11.80;97.80;;;;;;5064613;28;20187;-71
2022/05/07 03:10:50;;;;;;;14.40;12.90;;;11.80;97.90;;;;;;5051641;28;20202;-70
2022/05/07 03:13:15;;;;;;;16.77;14.33;;;11.80;97.90;;;;;;5067405;28;20191;-71
2022/05/07 03:15:41;;;;;;;15.97;13.17;;;11.80;97.80;;;;;;5035335;28;20195;-69
2022/05/07 03:18:07;;;;;;;17.17;15.13;;;11.80;97.80;;;;;;5034325;28;20215;-68
2022/05/07 03:20:32;;;;;;;14.17;12.37;;;11.80;97.80;;;;;;5032346;28;20227;-68
2022/05/07 03:22:58;;;;;;;17.93;15.13;;;11.80;97.90;;;;;;5051917;28;20248;-77
2022/05/07 03:25:24;;;;;;;16.07;14.20;;;11.80;97.90;;;;;;5030051;28;20187;-76
2022/05/07 03:27:50;;;;;;;13.83;12.53;;;11.80;97.80;;;;;;5051416;28;20313;-73
2022/05/07 03:30:15;;;;;;;14.60;12.67;;;11.80;97.90;;;;;;5034325;28;20203;-80
2022/05/07 03:32:41;;;;;;;17.47;15.20;;;11.80;97.90;;;;;;5034975;28;20195;-73
2022/05/07 03:35:07;;;;;;;17.53;15.43;;;11.80;97.90;;;;;;5048146;28;20195;-71
2022/05/07 03:37:33;;;;;;;16.43;13.47;;;11.80;97.90;;;;;;5050895;28;20237;-71
2022/05/07 03:39:58;;;;;;;15.13;13.03;;;11.80;97.90;;;;;;5033940;28;20230;-72
2022/05/07 03:42:26;;;;;;;18.80;15.83;;;11.80;97.90;;;;;;5048356;28;20199;-72
2022/05/07 03:44:51;;;;;;;16.23;13.70;;;11.80;97.90;;;;;;5033582;28;20196;-74
2022/05/07 03:47:17;;;;;;;17.23;14.30;;;11.80;97.90;;;;;;4998732;28;20222;-78
2022/05/07 03:49:43;;;;;;;15.37;12.70;;;11.80;97.90;;;;;;5034806;28;20187;-77
2022/05/07 03:54:53;;;;;;;14.87;12.27;;;11.80;97.90;;;;;;5048716;28;20205;-70
2022/05/07 03:57:18;;;;;;;16.50;13.17;;;11.80;97.90;;;;;;5067259;28;20187;-70
2022/05/07 03:59:44;;;;;;;13.47;12.17;;;11.80;97.90;;;;;;5034185;28;20244;-70
2022/05/07 04:02:10;;;;;;;14.57;12.40;;;11.80;97.90;;;;;;5050789;28;20191;-73
2022/05/07 04:04:35;;;;;;;14.43;12.93;;;11.80;97.90;;;;;;5050498;28;20187;-71
2022/05/07 04:07:02;;;;;;;14.23;12.73;;;11.80;97.90;;;;;;5034105;28;20187;-73
2022/05/07 04:09:28;;;;;;;13.83;12.50;;;11.80;97.90;;;;;;5033819;28;20252;-73
2022/05/07 04:11:54;;;;;;;14.83;12.50;;;11.80;97.90;;;;;;5067393;28;20191;-73
2022/05/07 04:14:19;;;;;;;16.67;13.13;;;11.80;97.90;;;;;;5050350;28;20191;-73
2022/05/07 04:16:46;;;;;;;16.50;11.07;;;11.80;97.90;;;;;;5033807;28;20312;-71
2022/05/07 04:19:12;;;;;;;11.97;10.77;;;11.80;97.90;;;;;;5050079;28;20265;-72
2022/05/07 04:21:39;;;;;;;12.13;10.83;;;11.80;97.90;;;;;;5033890;28;20227;-76
2022/05/07 04:24:06;;;;;;;13.53;10.90;;;11.80;97.90;;;;;;5034707;28;20182;-72
2022/05/07 04:26:31;;;;;;;14.50;12.90;;;11.80;97.90;;;;;;5033551;28;20187;-74
2022/05/07 04:28:57;;;;;;;15.03;12.30;;;11.90;97.90;;;;;;5050399;28;20210;-77
2022/05/07 04:31:24;;;;;;;11.47;10.20;;;11.80;97.90;;;;;;5049980;28;20191;-71
2022/05/07 04:33:50;;;;;;;13.87;12.37;;;11.90;97.90;;;;;;5033398;28;20252;-76
2022/05/07 04:36:16;;;;;;;13.43;12.03;;;11.80;97.90;;;;;;5050115;28;20198;-71
2022/05/07 04:38:42;;;;;;;13.67;12.13;;;11.90;97.90;;;;;;5063922;28;20211;-67
2022/05/07 04:41:07;;;;;;;15.93;12.33;;;11.80;97.90;;;;;;5013340;28;20191;-71
2022/05/07 04:43:33;;;;;;;14.00;12.23;;;11.90;97.90;;;;;;5032507;28;20313;-72
2022/05/07 04:45:59;;;;;;;11.43;10.23;;;11.90;97.90;;;;;;5032418;28;20203;-72
2022/05/07 04:48:24;;;;;;;12.27;10.93;;;11.90;97.90;;;;;;5046973;28;20207;-71
2022/05/07 04:50:50;;;;;;;13.17;11.50;;;11.90;97.90;;;;;;5027138;28;20223;-71
2022/05/07 04:53:16;;;;;;;13.83;11.67;;;11.90;97.90;;;;;;5033413;28;20198;-71
2022/05/07 04:55:41;;;;;;;13.20;11.80;;;11.90;97.90;;;;;;5032456;28;20191;-72
2022/05/07 04:58:07;;;;;;;14.27;12.77;;;11.90;97.90;;;;;;5048429;28;20248;-70
2022/05/07 05:00:33;;;;;;;15.73;14.13;;;11.90;97.90;;;;;;5032194;28;20187;-70
2022/05/07 05:02:58;;;;;;;17.37;14.00;;;12.00;97.90;;;;;;5048177;28;20241;-69
2022/05/07 05:05:25;;;;;;;14.63;12.33;;;12.00;97.90;;;;;;5048058;28;20202;-73
2022/05/07 05:07:51;;;;;;;18.17;15.57;;;12.00;97.90;;;;;;5000953;28;20298;-69
2022/05/07 05:10:18;;;;;;;14.10;12.80;;;12.00;97.90;;;;;;5016397;28;20249;-72
2022/05/07 05:12:43;;;;;;;16.87;14.10;;;12.00;97.90;;;;;;5066593;28;20175;-69
2022/05/07 05:15:10;;;;;;;15.83;14.23;;;12.00;97.90;;;;;;5030480;28;20629;-70
2022/05/07 05:17:37;;;;;;;16.33;14.63;;;12.00;97.90;;;;;;5029517;28;20222;-72
2022/05/07 05:20:04;;;;;;;15.20;13.63;;;12.00;97.90;;;;;;5048630;28;20187;-73
2022/05/07 05:22:30;;;;;;;14.77;13.27;;;12.10;97.90;;;;;;5032156;28;20196;-71
2022/05/07 05:24:56;;;;;;;21.77;17.70;;;12.10;97.90;;;;;;5049089;28;20272;-77
2022/05/07 05:27:21;;;;;;;18.67;16.77;;;12.20;97.90;;;;;;5031446;28;20191;-71
2022/05/07 05:29:47;;;;;;;16.03;14.33;;;12.20;97.90;;;;;;5065640;28;20210;-70
2022/05/07 05:32:17;;;;;;;15.17;13.63;;;12.20;97.90;;;;;;5016391;28;20213;-68
2022/05/07 05:34:45;;;;;;;14.00;12.50;;;12.20;97.90;;;;;;5041385;28;20179;-67
2022/05/07 05:37:11;;;;;;;16.80;15.03;;;12.20;97.90;;;;;;5020512;28;20199;-67
2022/05/07 05:39:37;;;;;;;14.60;13.17;;;12.30;97.90;;;;;;5049359;28;20234;-68
2022/05/07 05:42:03;;;;;;;17.57;15.87;;;12.30;97.90;;;;;;5033178;28;20240;-73
2022/05/07 05:44:28;;;;;;;14.23;12.83;;;12.30;97.90;;;;;;5048996;28;20221;-69
2022/05/07 05:46:54;;;;;;;14.63;13.13;;;12.30;97.90;;;;;;5056144;28;20192;-69
2022/05/07 05:49:19;;;;;;;17.77;15.90;;;12.30;97.90;;;;;;5013539;28;20707;-70
2022/05/07 05:51:45;;;;;;;17.13;15.33;;;12.30;97.90;;;;;;5017787;28;20198;-73
2022/05/07 05:54:11;;;;;;;16.30;14.63;;;12.30;97.80;;;;;;5036764;28;20195;-68
2022/05/07 05:56:36;;;;;;;16.63;14.73;;;12.30;97.80;;;;;;5053745;28;20203;-71
2022/05/07 05:59:02;;;;;;;16.37;14.10;;;12.30;97.80;;;;;;5069421;28;20214;-71
2022/05/07 06:01:27;;;;;;;16.40;14.80;;;12.30;97.80;;;;;;5035607;28;20198;-70
2022/05/07 06:03:53;;;;;;;16.03;14.43;;;12.30;97.80;;;;;;5050350;28;20261;-71
2022/05/07 06:06:19;;;;;;;16.93;15.33;;;12.30;97.80;;;;;;5035160;28;20202;-71
2022/05/07 06:08:46;;;;;;;15.80;14.20;;;12.30;97.80;;;;;;5035888;28;20221;-72
2022/05/07 06:11:11;;;;;;;16.30;14.60;;;12.30;97.80;;;;;;5052388;28;20273;-72
2022/05/07 06:13:37;;;;;;;15.20;13.70;;;12.30;97.80;;;;;;5017659;28;20195;-72
2022/05/07 06:16:03;;;;;;;17.13;15.33;;;12.30;97.80;;;;;;5035759;28;20222;-72
2022/05/07 06:18:29;;;;;;;17.40;15.20;;;12.30;97.80;;;;;;5051630;28;20219;-76
2022/05/07 06:20:55;;;;;;;17.17;13.83;;;12.40;97.80;;;;;;5037254;28;20273;-69
2022/05/07 06:23:20;;;;;;;15.27;13.77;;;12.30;97.80;;;;;;5027823;28;20330;-69
2022/05/07 06:28:30;;;;;;;13.87;11.43;;;12.40;97.70;;;;;;5034295;28;20241;-71
2022/05/07 06:30:56;;;;;;;15.47;13.97;;;12.30;97.70;;;;;;5036960;28;20187;-70
2022/05/07 06:33:22;;;;;;;14.47;12.97;;;12.30;97.70;;;;;;5035457;28;20179;-70
2022/05/07 06:35:48;;;;;;;14.43;12.67;;;12.30;97.70;;;;;;5035080;28;20214;-70
2022/05/07 06:38:16;;;;;;;15.27;13.67;;;12.40;97.70;;;;;;5052771;28;20218;-71
2022/05/07 06:40:41;;;;;;;12.97;11.47;;;12.40;97.70;;;;;;5051728;28;20261;-71
2022/05/07 06:43:08;;;;;;;15.77;13.60;;;12.40;97.60;;;;;;5018314;28;20184;-71
2022/05/07 06:45:34;;;;;;;15.83;14.03;;;12.30;97.60;;;;;;5039016;28;20197;-71
2022/05/07 06:48:00;;;;;;;15.07;13.43;;;12.40;97.60;;;;;;5017977;28;20265;-66
2022/05/07 06:50:26;;;;;;;15.23;13.20;;;12.30;97.50;;;;;;5064810;28;20199;-65
2022/05/07 06:52:52;;;;;;;13.17;11.87;;;12.30;97.50;;;;;;5051309;28;20198;-71
2022/05/07 06:55:19;;;;;;;14.43;12.93;;;12.30;97.40;;;;;;5067786;28;20296;-71
2022/05/07 06:57:45;;;;;;;15.33;12.63;;;12.30;97.40;;;;;;5035484;28;20202;-70
2022/05/07 07:00:13;;;;;;;14.27;12.87;;;12.30;97.40;;;;;;5018602;28;20199;-71
2022/05/07 07:02:40;;;;;;;14.47;12.93;;;12.40;97.40;;;;;;5036132;28;20222;-71
2022/05/07 07:05:07;;;;;;;15.07;12.57;;;12.50;97.30;;;;;;5047890;28;20210;-70
2022/05/07 07:07:32;;;;;;;14.77;13.17;;;12.50;97.20;;;;;;5034017;28;20199;-72
2022/05/07 07:09:58;;;;;;;14.17;12.40;;;12.50;97.10;;;;;;5051867;28;20195;-71
2022/05/07 07:12:24;;;;;;;14.40;12.90;;;12.50;97.10;;;;;;5034275;28;20191;-72
2022/05/07 07:14:50;;;;;;;14.47;12.97;;;12.50;97.10;;;;;;5034591;28;20245;-71
2022/05/07 07:17:17;;;;;;;14.87;13.20;;;12.60;97.20;;;;;;5068026;28;20199;-71
2022/05/07 07:19:46;;;;;;;14.10;12.80;;;12.60;97.20;;;;;;5066227;28;20187;-71
2022/05/07 07:22:12;;;;;;;14.57;13.07;;;12.70;97.20;;;;;;5036229;28;20172;-71
2022/05/07 07:24:38;;;;;;;12.93;11.67;;;12.80;97.20;;;;;;5033524;28;20245;-71
2022/05/07 07:27:04;;;;;;;14.50;13.03;;;12.80;97.00;;;;;;5033066;28;20222;-71
2022/05/07 07:29:30;;;;;;;15.47;13.33;;;12.90;97.20;;;;;;5033951;28;20195;-70
2022/05/07 07:31:56;;;;;;;13.40;12.00;;;13.10;97.30;;;;;;5033739;28;20222;-71
2022/05/07 07:34:22;;;;;;;11.90;10.73;;;13.00;97.00;;;;;;5035134;28;20199;-70
2022/05/07 07:36:51;;;;;;;15.33;13.07;;;13.00;97.00;;;;;;5061475;28;20191;-70
2022/05/07 07:39:18;;;;;;;14.57;12.63;;;13.20;97.10;;;;;;5014207;28;20231;-70
2022/05/07 07:41:44;;;;;;;12.97;11.67;;;13.20;97.10;;;;;;5016753;28;20179;-70
2022/05/07 07:44:10;;;;;;;12.03;10.87;;;13.20;97.10;;;;;;5024137;28;20191;-70
2022/05/07 07:49:20;;;;;;;13.53;12.07;;;13.20;96.70;;;;;;5019972;28;20201;-70
2022/05/07 07:51:46;;;;;;;12.87;11.60;;;13.30;96.80;;;;;;5027987;28;20187;-70
2022/05/07 07:54:12;;;;;;;12.57;11.33;;;13.30;96.80;;;;;;5032527;28;20195;-70
2022/05/07 07:56:38;;;;;;;13.03;11.77;;;13.30;96.70;;;;;;5064762;28;20265;-71
2022/05/07 07:59:03;;;;;;;12.63;11.17;;;13.30;96.70;;;;;;5048180;28;20223;-71
2022/05/07 08:01:29;;;;;;;11.77;10.57;;;13.30;96.70;;;;;;5032535;28;20187;-70
2022/05/07 08:03:55;;;;;;;12.30;11.03;;;13.30;96.80;;;;;;5008584;28;20180;-70
2022/05/07 08:06:20;;;;;;;14.47;11.47;;;13.40;96.80;;;;;;5012160;28;20184;-70
2022/05/07 08:11:42;;;;;;;12.83;11.63;;;13.40;96.60;;;;;;5027165;28;20443;-70
2022/05/07 08:14:09;;;;;;;13.20;11.83;;;13.50;96.70;;;;;;5011674;28;20214;-70
2022/05/07 08:16:35;;;;;;;13.03;11.73;;;13.60;96.70;;;;;;5013373;28;20184;-71
2022/05/07 08:19:03;;;;;;;14.70;13.03;;;13.70;96.90;;;;;;5031277;28;20211;-71
2022/05/07 08:21:29;;;;;;;11.97;10.77;;;13.80;96.80;;;;;;5031086;28;20224;-71
2022/05/07 08:23:55;;;;;;;14.17;12.87;;;13.80;96.70;;;;;;5045859;28;20179;-70
2022/05/07 08:26:21;;;;;;;12.37;11.07;;;13.90;96.60;;;;;;5027867;28;20183;-71
2022/05/07 08:28:47;;;;;;;13.53;11.70;;;13.90;96.60;;;;;;5012416;28;20190;-70
2022/05/07 08:31:14;;;;;;;12.33;10.80;;;14.00;96.20;;;;;;5026941;28;20186;-69
2022/05/07 08:33:43;;;;;;;11.27;10.23;;;14.00;96.10;;;;;;5031868;28;20219;-70
2022/05/07 08:36:10;;;;;;;11.50;9.80;;;13.90;95.00;;;;;;5046102;28;20179;-70
2022/05/07 08:38:36;;;;;;;11.00;9.90;;;13.90;94.50;;;;;;5014133;28;20211;-70
2022/05/07 08:41:03;;;;;;;9.47;8.63;;;13.90;94.80;;;;;;5025304;28;20202;-70
2022/05/07 08:43:38;;;;;;;9.80;8.80;;;13.80;94.90;;;;;;5024736;28;20187;-69
2022/05/07 08:46:16;;;;;;;17.50;11.23;;;13.70;94.40;;;;;;5033329;28;20185;-69
2022/05/07 08:48:45;;;;;;;11.53;10.33;;;13.80;95.30;;;;;;5032167;28;20190;-69
2022/05/07 08:51:14;;;;;;;11.07;9.90;;;13.80;95.40;;;;;;5015930;28;20272;-69
2022/05/07 08:53:40;;;;;;;11.60;10.33;;;13.80;94.90;;;;;;5031923;28;20190;-70
2022/05/07 08:56:07;;;;;;;11.27;10.27;;;13.90;95.30;;;;;;5014537;28;20188;-70
2022/05/07 08:58:32;;;;;;;11.87;10.77;;;14.00;95.50;;;;;;5014834;28;20225;-71
2022/05/07 09:01:00;;;;;;;11.53;10.43;;;14.00;95.70;;;;;;5048472;28;20179;-70
2022/05/07 09:03:40;;;;;;;9.80;8.90;;;14.00;95.20;;;;;;5033185;28;20184;-70
2022/05/07 09:06:24;;;;;;;10.80;9.80;;;14.00;95.30;;;;;;5027825;28;20189;-71
2022/05/07 09:08:51;;;;;;;10.13;9.07;;;14.10;94.00;;;;;;5013395;28;20218;-69
2022/05/07 09:11:17;;;;;;;10.20;9.30;;;14.00;93.80;;;;;;5012215;28;20188;-69
2022/05/07 09:13:43;;;;;;;11.53;10.43;;;13.90;94.00;;;;;;5012312;28;20231;-70
2022/05/07 09:16:09;;;;;;;11.77;10.57;;;13.90;94.20;;;;;;5011767;28;20195;-69
2022/05/07 09:18:35;;;;;;;10.90;9.80;;;13.90;94.50;;;;;;5047947;28;20212;-69
2022/05/07 09:21:16;;;;;;;11.00;9.90;;;13.80;94.60;;;;;;5048108;28;20167;-69
2022/05/07 09:23:46;;;;;;;10.47;9.50;;;13.80;94.80;;;;;;5032782;28;20211;-70
2022/05/07 09:26:43;;;;;;;12.43;11.23;;;13.80;94.70;;;;;;5021513;28;20188;-70
2022/05/07 09:29:11;;;;;;;12.03;10.83;;;13.80;95.10;;;;;;5011497;28;20172;-70
2022/05/07 09:31:41;;;;;;;11.60;10.30;;;13.80;94.80;;;;;;5030545;28;20292;-70
2022/05/07 09:37:18;;;;;;;10.27;9.40;;;13.80;94.70;;;;;;5047017;28;20343;-69
2022/05/07 09:39:48;;;;;;;12.00;10.83;;;13.80;95.10;;;;;;5014373;28;20242;-70
2022/05/07 09:42:20;;;;;;;9.93;9.03;;;13.90;95.50;;;;;;5031123;28;20199;-70
2022/05/07 09:44:46;;;;;;;11.60;10.43;;;13.90;95.70;;;;;;5022147;28;20202;-69
2022/05/07 09:47:13;;;;;;;14.80;10.83;;;13.90;95.60;;;;;;5033756;28;20302;-67
2022/05/07 09:52:28;;;;;;;11.73;10.53;;;13.90;95.70;;;;;;5063829;28;20202;-69
2022/05/07 09:57:39;;;;;;;11.10;9.93;;;14.00;95.20;;;;;;5036846;28;20186;-71
2022/05/07 10:00:07;;;;;;;10.87;9.80;;;13.90;94.40;;;;;;5034113;28;20221;-70
2022/05/07 10:03:18;;;;;;;12.03;10.77;;;13.90;94.70;;;;;;5017916;28;20231;-69
2022/05/07 10:06:23;;;;;;;13.57;10.73;;;13.80;94.90;;;;;;5026869;28;20222;-69
2022/05/07 10:09:09;;;;;;;11.23;9.53;;;13.80;94.60;;;;;;5007970;28;20253;-69
2022/05/07 10:11:35;;;;;;;12.03;10.07;;;13.70;94.50;;;;;;5014293;28;20194;-70
2022/05/07 10:14:01;;;;;;;12.97;11.20;;;13.70;94.50;;;;;;5030720;28;20271;-69
2022/05/07 10:16:30;;;;;;;11.17;10.07;;;13.70;94.80;;;;;;5031918;28;20294;-69
2022/05/07 10:18:57;;;;;;;12.40;11.17;;;13.60;94.90;;;;;;5050863;28;20218;-69
2022/05/07 10:21:22;;;;;;;11.53;9.70;;;13.70;95.00;;;;;;5051257;28;20217;-69
2022/05/07 10:23:53;;;;;;;13.20;11.53;;;13.70;95.30;;;;;;5049823;28;20194;-69
2022/05/07 10:26:21;;;;;;;11.63;10.50;;;13.70;95.40;;;;;;5034515;28;20198;-68
2022/05/07 10:28:48;;;;;;;11.83;10.73;;;13.70;95.40;;;;;;5046353;28;20195;-69
2022/05/07 10:31:24;;;;;;;11.90;10.70;;;13.80;94.90;;;;;;5066546;28;20199;-69
2022/05/07 10:33:51;;;;;;;12.17;10.17;;;13.80;95.20;;;;;;5013815;28;20199;-69
2022/05/07 10:36:19;;;;;;;12.43;11.13;;;13.80;95.10;;;;;;5046360;28;20233;-69
2022/05/07 10:38:46;;;;;;;12.20;11.00;;;13.80;95.20;;;;;;5034256;28;20305;-67
2022/05/07 10:41:12;;;;;;;13.53;12.30;;;13.80;95.60;;;;;;5028083;28;20226;-69
2022/05/07 10:43:40;;;;;;;11.77;10.73;;;13.90;95.80;;;;;;5065535;28;20215;-69
2022/05/07 10:46:19;;;;;;;12.23;11.03;;;13.90;95.90;;;;;;5030604;28;20253;-67
2022/05/07 10:48:47;;;;;;;12.83;11.50;;;13.90;95.30;;;;;;5061975;28;20237;-68
2022/05/07 10:51:39;;;;;;;11.20;10.10;;;14.00;95.80;;;;;;5032717;28;20282;-65
2022/05/07 10:54:19;;;;;;;11.57;10.43;;;14.00;95.40;;;;;;5032311;28;20214;-65
2022/05/07 10:56:50;;;;;;;12.70;11.50;;;14.10;95.40;;;;;;5034638;28;20173;-65
2022/05/07 10:59:16;;;;;;;13.87;11.47;;;14.00;95.30;;;;;;5025932;28;20278;-66
2022/05/07 11:01:42;;;;;;;12.87;11.57;;;14.00;95.20;;;;;;5030932;28;20176;-67
2022/05/07 11:04:12;;;;;;;12.23;11.13;;;14.10;95.30;;;;;;5012181;28;20187;-66
2022/05/07 11:06:42;;;;;;;13.63;12.33;;;14.10;95.60;;;;;;5031920;28;20179;-67
2022/05/07 11:09:17;;;;;;;11.97;10.77;;;14.20;95.50;;;;;;5046560;28;20246;-66
2022/05/07 11:11:44;;;;;;;12.50;11.27;;;14.20;95.30;;;;;;5046603;28;20191;-68
2022/05/07 11:14:20;;;;;;;12.90;11.60;;;14.20;95.00;;;;;;5048794;28;20199;-68
2022/05/07 11:16:46;;;;;;;12.40;11.17;;;14.20;95.00;;;;;;5029871;28;20195;-68
2022/05/07 11:19:28;;;;;;;12.47;11.37;;;14.30;94.90;;;;;;5048669;28;20219;-69
2022/05/07 11:21:55;;;;;;;12.57;11.37;;;14.20;94.30;;;;;;5014218;28;20195;-70
2022/05/07 11:24:22;;;;;;;12.87;11.67;;;14.10;94.40;;;;;;5031940;28;20219;-70
2022/05/07 11:26:52;;;;;;;11.20;10.20;;;14.00;94.80;;;;;;5055702;28;20202;-70
2022/05/07 11:29:18;;;;;;;13.77;12.23;;;14.00;94.80;;;;;;5035160;28;20191;-70
2022/05/07 11:32:04;;;;;;;13.37;10.47;;;14.00;95.30;;;;;;5029223;28;20186;-70
2022/05/07 11:34:35;;;;;;;11.30;10.23;;;14.00;94.90;;;;;;5015080;28;20298;-70
2022/05/07 11:37:20;;;;;;;11.23;10.17;;;14.00;95.10;;;;;;5022818;28;20187;-70
2022/05/07 11:40:04;;;;;;;14.13;11.40;;;13.90;94.90;;;;;;5015084;28;20334;-70
2022/05/07 11:42:38;;;;;;;11.83;10.83;;;14.00;95.30;;;;;;5031672;28;20234;-70
2022/05/07 11:45:26;;;;;;;9.43;8.60;;;14.00;95.10;;;;;;5020983;28;20186;-70
2022/05/07 11:47:56;;;;;;;12.53;10.77;;;14.00;94.80;;;;;;5054733;28;20236;-70
2022/05/07 11:50:29;;;;;;;12.13;10.93;;;14.00;94.80;;;;;;5046705;28;20313;-71
2022/05/07 11:52:56;;;;;;;14.03;12.63;;;14.00;94.90;;;;;;5033680;28;20187;-71
2022/05/07 11:55:27;;;;;;;13.57;11.60;;;14.00;94.80;;;;;;5030572;28;20234;-71
2022/05/07 11:57:54;;;;;;;12.17;10.97;;;14.00;94.80;;;;;;5014679;28;20211;-71
2022/05/07 12:00:22;;;;;;;12.60;11.30;;;14.00;94.80;;;;;;5050124;28;20210;-71
2022/05/07 12:02:55;;;;;;;11.70;10.60;;;14.00;95.00;;;;;;5034633;28;20171;-71
2022/05/07 12:05:21;;;;;;;12.33;10.67;;;14.00;95.00;;;;;;5034287;28;20190;-71
2022/05/07 12:07:49;;;;;;;12.47;11.03;;;14.00;95.20;;;;;;5033068;28;20210;-71
2022/05/07 12:10:20;;;;;;;11.87;10.53;;;14.00;95.20;;;;;;5052922;28;20207;-71
2022/05/07 12:12:47;;;;;;;11.33;10.33;;;14.00;95.20;;;;;;5014747;28;20191;-71
2022/05/07 12:15:13;;;;;;;11.60;10.60;;;14.00;95.10;;;;;;5014593;28;20178;-70
2022/05/07 12:17:55;;;;;;;11.83;10.63;;;13.90;94.90;;;;;;5045762;28;20191;-71
2022/05/07 12:20:24;;;;;;;13.40;11.77;;;13.80;95.00;;;;;;5034211;28;20210;-71
2022/05/07 12:31:04;;;;;;;12.57;11.27;;;13.80;95.60;;;;;;5029753;28;20187;-70
2022/05/07 12:33:31;;;;;;;12.77;11.47;;;13.80;95.70;;;;;;5017420;28;20187;-70
2022/05/07 12:35:56;;;;;;;11.80;10.67;;;13.80;95.60;;;;;;5017262;28;20187;-70
2022/05/07 12:38:22;;;;;;;13.83;12.53;;;13.80;95.80;;;;;;4981489;28;20311;-70
2022/05/07 12:40:48;;;;;;;12.60;11.27;;;13.80;96.00;;;;;;5013923;28;20310;-69
2022/05/07 12:43:13;;;;;;;13.70;12.40;;;13.80;96.10;;;;;;5030540;28;20192;-69
2022/05/07 12:45:39;;;;;;;12.33;11.00;;;13.90;96.20;;;;;;5050006;28;20194;-69
2022/05/07 12:48:05;;;;;;;13.63;11.50;;;13.90;96.30;;;;;;5033348;28;20287;-69
2022/05/07 12:50:30;;;;;;;12.53;11.27;;;14.00;96.30;;;;;;5050226;28;20206;-69
2022/05/07 12:52:56;;;;;;;12.47;11.37;;;14.00;95.90;;;;;;5049914;28;20180;-69
2022/05/07 12:55:21;;;;;;;12.93;11.67;;;14.00;95.70;;;;;;5054160;28;20199;-68
2022/05/07 12:57:47;;;;;;;12.83;11.63;;;13.90;95.70;;;;;;5032982;28;20195;-69
2022/05/07 13:00:14;;;;;;;12.13;10.97;;;14.00;95.50;;;;;;5032784;28;20298;-68
2022/05/07 13:02:40;;;;;;;12.03;10.63;;;13.90;95.50;;;;;;5017146;28;20187;-70
2022/05/07 13:05:06;;;;;;;9.67;8.77;;;13.90;95.10;;;;;;5013439;28;20192;-68
2022/05/07 13:07:32;;;;;;;12.13;10.17;;;14.00;95.20;;;;;;5014536;28;20192;-72
2022/05/07 13:09:57;;;;;;;11.13;10.03;;;13.90;95.10;;;;;;4997514;28;20188;-71